sensor_id;sensor_type;location;lat;lon;timestamp;P1;durP1;ratioP1;P2;durP2;ratioP2
69087;SDS011;56190;43.562;5.036;2022-11-20T00:02:10;3.45;;;1.33;;
69087;SDS011;56190;43.562;5.036;2022-11-20T00:04:36;3.83;;;1.15;;
69087;SDS011;56190;43.562;5.036;2022-11-20T00:07:01;2.35;;;0.98;;
69087;SDS011;56190;43.562;5.036;2022-11-20T00:09:26;1.90;;;1.15;;
69087;SDS011;56190;43.562;5.036;2022-11-20T00:11:51;2.60;;;1.30;;
69087;SDS011;56190;43.562;5.036;2022-11-20T00:14:17;2.58;;;1.13;;
69087;SDS011;56190;43.562;5.036;2022-11-20T00:16:42;4.57;;;1.42;;
69087;SDS011;56190;43.562;5.036;2022-11-20T00:19:07;2.95;;;1.10;;
69087;SDS011;56190;43.562;5.036;2022-11-20T00:21:33;2.45;;;1.15;;
69087;SDS011;56190;43.562;5.036;2022-11-20T00:23:58;2.75;;;1.65;;
69087;SDS011;56190;43.562;5.036;2022-11-20T00:26:24;4.00;;;1.23;;
69087;SDS011;56190;43.562;5.036;2022-11-20T00:28:50;2.45;;;1.27;;
69087;SDS011;56190;43.562;5.036;2022-11-20T00:31:16;2.40;;;1.30;;
69087;SDS011;56190;43.562;5.036;2022-11-20T00:33:42;3.15;;;1.17;;
69087;SDS011;56190;43.562;5.036;2022-11-20T00:36:09;3.50;;;1.52;;
69087;SDS011;56190;43.562;5.036;2022-11-20T00:38:34;2.58;;;1.10;;
69087;SDS011;56190;43.562;5.036;2022-11-20T00:41:06;2.00;;;1.23;;
69087;SDS011;56190;43.562;5.036;2022-11-20T00:43:32;1.85;;;1.20;;
69087;SDS011;56190;43.562;5.036;2022-11-20T00:45:58;5.22;;;1.58;;
69087;SDS011;56190;43.562;5.036;2022-11-20T00:48:23;2.65;;;1.20;;
69087;SDS011;56190;43.562;5.036;2022-11-20T00:50:48;2.20;;;1.10;;
69087;SDS011;56190;43.562;5.036;2022-11-20T00:53:14;2.67;;;1.33;;
69087;SDS011;56190;43.562;5.036;2022-11-20T00:55:39;1.38;;;0.82;;
69087;SDS011;56190;43.562;5.036;2022-11-20T00:58:04;2.30;;;1.08;;
69087;SDS011;56190;43.562;5.036;2022-11-20T01:00:30;2.00;;;1.30;;
69087;SDS011;56190;43.562;5.036;2022-11-20T01:02:55;1.80;;;0.90;;
69087;SDS011;56190;43.562;5.036;2022-11-20T01:05:20;2.97;;;1.15;;
69087;SDS011;56190;43.562;5.036;2022-11-20T01:07:45;4.63;;;1.00;;
69087;SDS011;56190;43.562;5.036;2022-11-20T01:10:11;2.63;;;1.20;;
69087;SDS011;56190;43.562;5.036;2022-11-20T01:12:36;2.45;;;1.00;;
69087;SDS011;56190;43.562;5.036;2022-11-20T01:15:01;4.55;;;1.40;;
69087;SDS011;56190;43.562;5.036;2022-11-20T01:17:26;3.15;;;1.38;;
69087;SDS011;56190;43.562;5.036;2022-11-20T01:19:52;1.92;;;1.10;;
69087;SDS011;56190;43.562;5.036;2022-11-20T01:22:17;3.53;;;1.23;;
69087;SDS011;56190;43.562;5.036;2022-11-20T01:24:42;1.70;;;1.15;;
69087;SDS011;56190;43.562;5.036;2022-11-20T01:27:07;4.15;;;1.17;;
69087;SDS011;56190;43.562;5.036;2022-11-20T01:29:33;3.60;;;1.13;;
69087;SDS011;56190;43.562;5.036;2022-11-20T01:31:58;6.70;;;1.65;;
69087;SDS011;56190;43.562;5.036;2022-11-20T01:34:23;2.25;;;1.10;;
69087;SDS011;56190;43.562;5.036;2022-11-20T01:36:50;2.63;;;1.27;;
69087;SDS011;56190;43.562;5.036;2022-11-20T01:39:20;2.58;;;1.00;;
69087;SDS011;56190;43.562;5.036;2022-11-20T01:41:46;4.10;;;1.30;;
69087;SDS011;56190;43.562;5.036;2022-11-20T01:44:43;2.35;;;1.00;;
69087;SDS011;56190;43.562;5.036;2022-11-20T01:47:11;2.80;;;1.00;;
69087;SDS011;56190;43.562;5.036;2022-11-20T01:50:11;2.05;;;0.95;;
69087;SDS011;56190;43.562;5.036;2022-11-20T01:52:36;2.58;;;1.00;;
69087;SDS011;56190;43.562;5.036;2022-11-20T01:55:09;3.53;;;1.00;;
69087;SDS011;56190;43.562;5.036;2022-11-20T01:57:35;2.42;;;1.10;;
69087;SDS011;56190;43.562;5.036;2022-11-20T02:00:04;2.50;;;1.23;;
69087;SDS011;56190;43.562;5.036;2022-11-20T02:02:30;2.05;;;0.98;;
69087;SDS011;56190;43.562;5.036;2022-11-20T02:04:56;2.17;;;1.30;;
69087;SDS011;56190;43.562;5.036;2022-11-20T02:07:23;3.88;;;1.15;;
69087;SDS011;56190;43.562;5.036;2022-11-20T02:09:49;2.92;;;1.20;;
69087;SDS011;56190;43.562;5.036;2022-11-20T02:12:14;3.30;;;1.42;;
69087;SDS011;56190;43.562;5.036;2022-11-20T02:14:59;4.93;;;1.10;;
69087;SDS011;56190;43.562;5.036;2022-11-20T02:17:25;2.50;;;1.13;;
69087;SDS011;56190;43.562;5.036;2022-11-20T02:19:50;1.95;;;1.10;;
69087;SDS011;56190;43.562;5.036;2022-11-20T02:22:19;2.95;;;1.30;;
69087;SDS011;56190;43.562;5.036;2022-11-20T02:24:46;1.92;;;1.15;;
69087;SDS011;56190;43.562;5.036;2022-11-20T02:27:13;2.25;;;1.00;;
69087;SDS011;56190;43.562;5.036;2022-11-20T02:29:40;1.92;;;1.30;;
69087;SDS011;56190;43.562;5.036;2022-11-20T02:32:17;2.58;;;1.10;;
69087;SDS011;56190;43.562;5.036;2022-11-20T02:34:42;3.53;;;1.27;;
69087;SDS011;56190;43.562;5.036;2022-11-20T02:37:07;2.28;;;1.20;;
69087;SDS011;56190;43.562;5.036;2022-11-20T02:39:33;1.70;;;1.15;;
69087;SDS011;56190;43.562;5.036;2022-11-20T02:42:00;2.72;;;1.20;;
69087;SDS011;56190;43.562;5.036;2022-11-20T02:44:25;1.30;;;1.10;;
69087;SDS011;56190;43.562;5.036;2022-11-20T02:46:51;2.60;;;1.25;;
69087;SDS011;56190;43.562;5.036;2022-11-20T02:49:16;3.42;;;0.98;;
69087;SDS011;56190;43.562;5.036;2022-11-20T02:51:41;1.48;;;0.90;;
69087;SDS011;56190;43.562;5.036;2022-11-20T02:54:07;3.22;;;1.42;;
69087;SDS011;56190;43.562;5.036;2022-11-20T02:56:32;1.98;;;1.13;;
69087;SDS011;56190;43.562;5.036;2022-11-20T02:58:57;1.10;;;0.90;;
69087;SDS011;56190;43.562;5.036;2022-11-20T03:01:22;2.38;;;1.10;;
69087;SDS011;56190;43.562;5.036;2022-11-20T03:03:48;1.90;;;1.10;;
69087;SDS011;56190;43.562;5.036;2022-11-20T03:06:14;2.75;;;1.02;;
69087;SDS011;56190;43.562;5.036;2022-11-20T03:08:39;2.55;;;1.13;;
69087;SDS011;56190;43.562;5.036;2022-11-20T03:11:05;2.10;;;1.20;;
69087;SDS011;56190;43.562;5.036;2022-11-20T03:13:31;2.70;;;1.00;;
69087;SDS011;56190;43.562;5.036;2022-11-20T03:15:56;4.15;;;1.10;;
69087;SDS011;56190;43.562;5.036;2022-11-20T03:18:21;3.55;;;1.38;;
69087;SDS011;56190;43.562;5.036;2022-11-20T03:20:46;1.85;;;0.85;;
69087;SDS011;56190;43.562;5.036;2022-11-20T03:23:12;2.13;;;1.05;;
69087;SDS011;56190;43.562;5.036;2022-11-20T03:25:37;2.17;;;1.20;;
69087;SDS011;56190;43.562;5.036;2022-11-20T03:28:02;3.03;;;1.30;;
69087;SDS011;56190;43.562;5.036;2022-11-20T03:30:27;2.75;;;1.20;;
69087;SDS011;56190;43.562;5.036;2022-11-20T03:32:53;2.70;;;1.20;;
69087;SDS011;56190;43.562;5.036;2022-11-20T03:35:18;2.90;;;1.25;;
69087;SDS011;56190;43.562;5.036;2022-11-20T03:37:44;2.67;;;1.08;;
69087;SDS011;56190;43.562;5.036;2022-11-20T03:40:10;1.95;;;1.15;;
69087;SDS011;56190;43.562;5.036;2022-11-20T03:42:36;2.60;;;1.55;;
69087;SDS011;56190;43.562;5.036;2022-11-20T03:45:10;1.80;;;1.10;;
69087;SDS011;56190;43.562;5.036;2022-11-20T03:47:35;1.73;;;1.10;;
69087;SDS011;56190;43.562;5.036;2022-11-20T03:50:00;2.45;;;1.20;;
69087;SDS011;56190;43.562;5.036;2022-11-20T03:52:25;2.70;;;1.52;;
69087;SDS011;56190;43.562;5.036;2022-11-20T03:54:51;2.28;;;1.23;;
69087;SDS011;56190;43.562;5.036;2022-11-20T03:57:16;3.35;;;1.40;;
69087;SDS011;56190;43.562;5.036;2022-11-20T03:59:41;3.05;;;1.20;;
69087;SDS011;56190;43.562;5.036;2022-11-20T04:02:07;2.50;;;1.30;;
69087;SDS011;56190;43.562;5.036;2022-11-20T04:04:32;3.35;;;1.30;;
69087;SDS011;56190;43.562;5.036;2022-11-20T04:06:57;3.40;;;1.38;;
69087;SDS011;56190;43.562;5.036;2022-11-20T04:09:22;1.98;;;1.20;;
69087;SDS011;56190;43.562;5.036;2022-11-20T04:11:48;1.88;;;1.30;;
69087;SDS011;56190;43.562;5.036;2022-11-20T04:14:13;2.08;;;1.13;;
69087;SDS011;56190;43.562;5.036;2022-11-20T04:16:39;1.40;;;0.90;;
69087;SDS011;56190;43.562;5.036;2022-11-20T04:19:05;2.47;;;1.20;;
69087;SDS011;56190;43.562;5.036;2022-11-20T04:21:31;2.22;;;1.40;;
69087;SDS011;56190;43.562;5.036;2022-11-20T04:23:56;2.85;;;1.27;;
69087;SDS011;56190;43.562;5.036;2022-11-20T04:26:22;1.48;;;1.00;;
69087;SDS011;56190;43.562;5.036;2022-11-20T04:28:48;2.70;;;1.10;;
69087;SDS011;56190;43.562;5.036;2022-11-20T04:31:14;1.63;;;1.17;;
69087;SDS011;56190;43.562;5.036;2022-11-20T04:33:40;3.20;;;1.33;;
69087;SDS011;56190;43.562;5.036;2022-11-20T04:38:30;2.63;;;1.27;;
69087;SDS011;56190;43.562;5.036;2022-11-20T04:41:00;2.17;;;1.20;;
69087;SDS011;56190;43.562;5.036;2022-11-20T04:43:26;2.38;;;1.42;;
69087;SDS011;56190;43.562;5.036;2022-11-20T04:45:52;2.95;;;1.45;;
69087;SDS011;56190;43.562;5.036;2022-11-20T04:48:17;3.65;;;1.50;;
69087;SDS011;56190;43.562;5.036;2022-11-20T04:50:43;2.88;;;1.35;;
69087;SDS011;56190;43.562;5.036;2022-11-20T04:53:08;2.13;;;1.38;;
69087;SDS011;56190;43.562;5.036;2022-11-20T04:55:33;3.45;;;1.40;;
69087;SDS011;56190;43.562;5.036;2022-11-20T04:57:58;2.22;;;1.20;;
69087;SDS011;56190;43.562;5.036;2022-11-20T05:00:24;5.80;;;1.77;;
69087;SDS011;56190;43.562;5.036;2022-11-20T05:02:49;1.10;;;1.00;;
69087;SDS011;56190;43.562;5.036;2022-11-20T05:05:14;3.78;;;1.40;;
69087;SDS011;56190;43.562;5.036;2022-11-20T05:07:39;2.45;;;1.20;;
69087;SDS011;56190;43.562;5.036;2022-11-20T05:10:05;2.88;;;1.52;;
69087;SDS011;56190;43.562;5.036;2022-11-20T05:12:31;3.38;;;1.63;;
69087;SDS011;56190;43.562;5.036;2022-11-20T05:14:56;4.22;;;1.80;;
69087;SDS011;56190;43.562;5.036;2022-11-20T05:17:21;2.53;;;1.27;;
69087;SDS011;56190;43.562;5.036;2022-11-20T05:19:46;1.30;;;1.10;;
69087;SDS011;56190;43.562;5.036;2022-11-20T05:22:12;4.20;;;1.30;;
69087;SDS011;56190;43.562;5.036;2022-11-20T05:24:37;2.50;;;1.30;;
69087;SDS011;56190;43.562;5.036;2022-11-20T05:27:02;4.20;;;1.30;;
69087;SDS011;56190;43.562;5.036;2022-11-20T05:29:28;1.65;;;1.30;;
69087;SDS011;56190;43.562;5.036;2022-11-20T05:31:53;3.10;;;1.30;;
69087;SDS011;56190;43.562;5.036;2022-11-20T05:34:18;2.63;;;1.15;;
69087;SDS011;56190;43.562;5.036;2022-11-20T05:36:43;2.03;;;1.30;;
69087;SDS011;56190;43.562;5.036;2022-11-20T05:39:09;2.75;;;1.48;;
69087;SDS011;56190;43.562;5.036;2022-11-20T05:41:34;2.65;;;1.00;;
69087;SDS011;56190;43.562;5.036;2022-11-20T05:43:59;3.15;;;1.27;;
69087;SDS011;56190;43.562;5.036;2022-11-20T05:46:25;2.90;;;1.25;;
69087;SDS011;56190;43.562;5.036;2022-11-20T05:48:50;2.22;;;1.20;;
69087;SDS011;56190;43.562;5.036;2022-11-20T05:51:16;2.00;;;1.25;;
69087;SDS011;56190;43.562;5.036;2022-11-20T05:53:42;3.28;;;1.60;;
69087;SDS011;56190;43.562;5.036;2022-11-20T05:56:09;2.50;;;1.33;;
69087;SDS011;56190;43.562;5.036;2022-11-20T05:58:35;2.78;;;1.10;;
69087;SDS011;56190;43.562;5.036;2022-11-20T06:01:04;2.67;;;1.20;;
69087;SDS011;56190;43.562;5.036;2022-11-20T06:03:29;2.42;;;1.20;;
69087;SDS011;56190;43.562;5.036;2022-11-20T06:05:55;1.27;;;1.02;;
69087;SDS011;56190;43.562;5.036;2022-11-20T06:08:20;2.30;;;1.10;;
69087;SDS011;56190;43.562;5.036;2022-11-20T06:10:45;3.15;;;1.40;;
69087;SDS011;56190;43.562;5.036;2022-11-20T06:13:11;1.95;;;1.55;;
69087;SDS011;56190;43.562;5.036;2022-11-20T06:15:36;2.13;;;1.00;;
69087;SDS011;56190;43.562;5.036;2022-11-20T06:18:01;3.05;;;1.30;;
69087;SDS011;56190;43.562;5.036;2022-11-20T06:20:26;1.65;;;1.23;;
69087;SDS011;56190;43.562;5.036;2022-11-20T06:22:52;1.88;;;1.17;;
69087;SDS011;56190;43.562;5.036;2022-11-20T06:25:17;3.30;;;1.27;;
69087;SDS011;56190;43.562;5.036;2022-11-20T06:27:42;2.67;;;1.20;;
69087;SDS011;56190;43.562;5.036;2022-11-20T06:30:08;2.00;;;1.20;;
69087;SDS011;56190;43.562;5.036;2022-11-20T06:32:33;2.22;;;1.10;;
69087;SDS011;56190;43.562;5.036;2022-11-20T06:34:58;1.80;;;1.00;;
69087;SDS011;56190;43.562;5.036;2022-11-20T06:37:24;2.53;;;1.60;;
69087;SDS011;56190;43.562;5.036;2022-11-20T06:39:49;3.42;;;1.42;;
69087;SDS011;56190;43.562;5.036;2022-11-20T06:42:14;3.20;;;1.40;;
69087;SDS011;56190;43.562;5.036;2022-11-20T06:44:39;2.72;;;1.30;;
69087;SDS011;56190;43.562;5.036;2022-11-20T06:47:05;4.13;;;1.52;;
69087;SDS011;56190;43.562;5.036;2022-11-20T06:49:30;3.03;;;1.40;;
69087;SDS011;56190;43.562;5.036;2022-11-20T06:51:55;1.52;;;1.10;;
69087;SDS011;56190;43.562;5.036;2022-11-20T06:54:20;5.00;;;1.58;;
69087;SDS011;56190;43.562;5.036;2022-11-20T06:56:46;2.17;;;1.27;;
69087;SDS011;56190;43.562;5.036;2022-11-20T06:59:12;2.70;;;1.30;;
69087;SDS011;56190;43.562;5.036;2022-11-20T07:01:38;3.00;;;1.20;;
69087;SDS011;56190;43.562;5.036;2022-11-20T07:04:03;2.83;;;1.20;;
69087;SDS011;56190;43.562;5.036;2022-11-20T07:06:28;1.83;;;1.30;;
69087;SDS011;56190;43.562;5.036;2022-11-20T07:08:53;2.55;;;1.20;;
69087;SDS011;56190;43.562;5.036;2022-11-20T07:11:19;4.18;;;1.20;;
69087;SDS011;56190;43.562;5.036;2022-11-20T07:13:44;3.65;;;1.33;;
69087;SDS011;56190;43.562;5.036;2022-11-20T07:16:09;2.50;;;1.20;;
69087;SDS011;56190;43.562;5.036;2022-11-20T07:18:35;4.47;;;1.60;;
69087;SDS011;56190;43.562;5.036;2022-11-20T07:21:01;2.20;;;1.45;;
69087;SDS011;56190;43.562;5.036;2022-11-20T07:23:26;2.40;;;1.30;;
69087;SDS011;56190;43.562;5.036;2022-11-20T07:25:51;1.50;;;1.20;;
69087;SDS011;56190;43.562;5.036;2022-11-20T07:28:16;2.60;;;1.40;;
69087;SDS011;56190;43.562;5.036;2022-11-20T07:30:42;2.38;;;1.40;;
69087;SDS011;56190;43.562;5.036;2022-11-20T07:33:07;2.92;;;1.33;;
69087;SDS011;56190;43.562;5.036;2022-11-20T07:35:32;2.30;;;1.15;;
69087;SDS011;56190;43.562;5.036;2022-11-20T07:37:58;2.60;;;1.40;;
69087;SDS011;56190;43.562;5.036;2022-11-20T07:40:23;2.95;;;1.50;;
69087;SDS011;56190;43.562;5.036;2022-11-20T07:42:52;3.83;;;1.42;;
69087;SDS011;56190;43.562;5.036;2022-11-20T07:45:18;3.83;;;1.10;;
69087;SDS011;56190;43.562;5.036;2022-11-20T07:47:43;3.45;;;1.75;;
69087;SDS011;56190;43.562;5.036;2022-11-20T07:50:09;3.00;;;1.52;;
69087;SDS011;56190;43.562;5.036;2022-11-20T07:52:34;4.15;;;1.20;;
69087;SDS011;56190;43.562;5.036;2022-11-20T07:54:59;2.80;;;1.42;;
69087;SDS011;56190;43.562;5.036;2022-11-20T07:57:25;4.80;;;1.45;;
69087;SDS011;56190;43.562;5.036;2022-11-20T07:59:50;3.83;;;1.40;;
69087;SDS011;56190;43.562;5.036;2022-11-20T08:02:15;2.17;;;1.30;;
69087;SDS011;56190;43.562;5.036;2022-11-20T08:04:40;2.67;;;1.08;;
69087;SDS011;56190;43.562;5.036;2022-11-20T08:07:06;1.73;;;1.13;;
69087;SDS011;56190;43.562;5.036;2022-11-20T08:09:31;2.40;;;1.30;;
69087;SDS011;56190;43.562;5.036;2022-11-20T08:11:57;3.10;;;1.70;;
69087;SDS011;56190;43.562;5.036;2022-11-20T08:14:41;2.70;;;1.10;;
69087;SDS011;56190;43.562;5.036;2022-11-20T08:17:06;2.35;;;1.20;;
69087;SDS011;56190;43.562;5.036;2022-11-20T08:19:31;3.25;;;1.10;;
69087;SDS011;56190;43.562;5.036;2022-11-20T08:21:57;2.03;;;1.02;;
69087;SDS011;56190;43.562;5.036;2022-11-20T08:24:22;4.60;;;1.33;;
69087;SDS011;56190;43.562;5.036;2022-11-20T08:26:47;3.22;;;1.25;;
69087;SDS011;56190;43.562;5.036;2022-11-20T08:29:12;2.25;;;1.27;;
69087;SDS011;56190;43.562;5.036;2022-11-20T08:31:38;2.22;;;1.00;;
69087;SDS011;56190;43.562;5.036;2022-11-20T08:34:03;2.75;;;1.15;;
69087;SDS011;56190;43.562;5.036;2022-11-20T08:36:28;2.97;;;1.10;;
69087;SDS011;56190;43.562;5.036;2022-11-20T08:38:54;3.20;;;1.30;;
69087;SDS011;56190;43.562;5.036;2022-11-20T08:41:19;3.40;;;0.95;;
69087;SDS011;56190;43.562;5.036;2022-11-20T08:43:59;2.05;;;1.30;;
69087;SDS011;56190;43.562;5.036;2022-11-20T08:46:25;2.25;;;1.10;;
69087;SDS011;56190;43.562;5.036;2022-11-20T08:48:50;1.48;;;1.02;;
69087;SDS011;56190;43.562;5.036;2022-11-20T08:51:16;2.58;;;1.15;;
69087;SDS011;56190;43.562;5.036;2022-11-20T08:53:41;3.50;;;1.40;;
69087;SDS011;56190;43.562;5.036;2022-11-20T08:56:07;3.67;;;1.30;;
69087;SDS011;56190;43.562;5.036;2022-11-20T08:58:32;2.65;;;1.10;;
69087;SDS011;56190;43.562;5.036;2022-11-20T09:00:58;2.17;;;1.20;;
69087;SDS011;56190;43.562;5.036;2022-11-20T09:03:23;3.15;;;1.42;;
69087;SDS011;56190;43.562;5.036;2022-11-20T09:05:48;2.58;;;1.27;;
69087;SDS011;56190;43.562;5.036;2022-11-20T09:08:14;2.05;;;1.17;;
69087;SDS011;56190;43.562;5.036;2022-11-20T09:10:39;3.50;;;1.05;;
69087;SDS011;56190;43.562;5.036;2022-11-20T09:13:05;1.77;;;0.90;;
69087;SDS011;56190;43.562;5.036;2022-11-20T09:15:30;2.83;;;1.17;;
69087;SDS011;56190;43.562;5.036;2022-11-20T09:17:56;2.50;;;1.02;;
69087;SDS011;56190;43.562;5.036;2022-11-20T09:20:23;3.20;;;1.25;;
69087;SDS011;56190;43.562;5.036;2022-11-20T09:22:48;2.00;;;1.38;;
69087;SDS011;56190;43.562;5.036;2022-11-20T09:25:13;1.95;;;1.10;;
69087;SDS011;56190;43.562;5.036;2022-11-20T09:27:38;3.75;;;1.15;;
69087;SDS011;56190;43.562;5.036;2022-11-20T09:30:04;2.70;;;1.10;;
69087;SDS011;56190;43.562;5.036;2022-11-20T09:32:29;2.70;;;1.10;;
69087;SDS011;56190;43.562;5.036;2022-11-20T09:34:54;2.60;;;1.10;;
69087;SDS011;56190;43.562;5.036;2022-11-20T09:37:19;3.20;;;1.20;;
69087;SDS011;56190;43.562;5.036;2022-11-20T09:39:45;1.20;;;1.00;;
69087;SDS011;56190;43.562;5.036;2022-11-20T09:47:50;3.33;;;1.13;;
69087;SDS011;56190;43.562;5.036;2022-11-20T09:55:08;2.92;;;1.13;;
69087;SDS011;56190;43.562;5.036;2022-11-20T09:57:39;3.22;;;1.40;;
69087;SDS011;56190;43.562;5.036;2022-11-20T10:00:06;2.35;;;0.80;;
69087;SDS011;56190;43.562;5.036;2022-11-20T10:03:23;2.88;;;1.20;;
69087;SDS011;56190;43.562;5.036;2022-11-20T10:05:23;2.42;;;1.00;;
69087;SDS011;56190;43.562;5.036;2022-11-20T10:28:43;3.65;;;1.20;;
69087;SDS011;56190;43.562;5.036;2022-11-20T10:31:13;2.10;;;1.17;;
69087;SDS011;56190;43.562;5.036;2022-11-20T10:33:40;5.60;;;1.00;;
69087;SDS011;56190;43.562;5.036;2022-11-20T10:36:08;1.50;;;0.90;;
69087;SDS011;56190;43.562;5.036;2022-11-20T10:38:40;1.45;;;0.73;;
69087;SDS011;56190;43.562;5.036;2022-11-20T10:41:07;2.38;;;1.20;;
69087;SDS011;56190;43.562;5.036;2022-11-20T10:44:11;1.30;;;0.80;;
69087;SDS011;56190;43.562;5.036;2022-11-20T10:46:40;1.65;;;0.85;;
69087;SDS011;56190;43.562;5.036;2022-11-20T10:49:12;2.08;;;0.90;;
69087;SDS011;56190;43.562;5.036;2022-11-20T10:52:21;1.65;;;0.85;;
69087;SDS011;56190;43.562;5.036;2022-11-20T11:00:11;1.20;;;0.85;;
69087;SDS011;56190;43.562;5.036;2022-11-20T11:02:53;2.83;;;0.80;;
69087;SDS011;56190;43.562;5.036;2022-11-20T11:07:59;3.58;;;1.40;;
69087;SDS011;56190;43.562;5.036;2022-11-20T11:10:32;1.75;;;0.70;;
69087;SDS011;56190;43.562;5.036;2022-11-20T11:13:01;2.17;;;1.05;;
69087;SDS011;56190;43.562;5.036;2022-11-20T11:15:36;2.25;;;0.85;;
69087;SDS011;56190;43.562;5.036;2022-11-20T11:18:01;2.60;;;0.90;;
69087;SDS011;56190;43.562;5.036;2022-11-20T11:20:27;2.22;;;0.93;;
69087;SDS011;56190;43.562;5.036;2022-11-20T11:22:53;1.02;;;0.70;;
69087;SDS011;56190;43.562;5.036;2022-11-20T11:25:30;2.03;;;0.95;;
69087;SDS011;56190;43.562;5.036;2022-11-20T11:27:59;2.58;;;0.80;;
69087;SDS011;56190;43.562;5.036;2022-11-20T11:30:26;1.92;;;0.80;;
69087;SDS011;56190;43.562;5.036;2022-11-20T11:33:01;2.58;;;1.00;;
69087;SDS011;56190;43.562;5.036;2022-11-20T11:35:27;2.42;;;0.75;;
69087;SDS011;56190;43.562;5.036;2022-11-20T11:37:54;2.10;;;0.70;;
69087;SDS011;56190;43.562;5.036;2022-11-20T11:40:20;2.67;;;0.90;;
69087;SDS011;56190;43.562;5.036;2022-11-20T11:42:51;2.78;;;0.88;;
69087;SDS011;56190;43.562;5.036;2022-11-20T11:45:18;2.60;;;0.80;;
69087;SDS011;56190;43.562;5.036;2022-11-20T11:55:54;1.40;;;0.80;;
69087;SDS011;56190;43.562;5.036;2022-11-20T12:00:31;1.83;;;0.70;;
69087;SDS011;56190;43.562;5.036;2022-11-20T12:03:13;1.73;;;0.80;;
69087;SDS011;56190;43.562;5.036;2022-11-20T12:05:48;3.25;;;0.70;;
69087;SDS011;56190;43.562;5.036;2022-11-20T12:08:24;3.55;;;0.90;;
69087;SDS011;56190;43.562;5.036;2022-11-20T12:10:53;1.25;;;0.70;;
69087;SDS011;56190;43.562;5.036;2022-11-20T12:15:49;1.98;;;0.93;;
69087;SDS011;56190;43.562;5.036;2022-11-20T12:18:15;1.25;;;0.85;;
69087;SDS011;56190;43.562;5.036;2022-11-20T12:20:41;2.55;;;0.80;;
69087;SDS011;56190;43.562;5.036;2022-11-20T12:23:22;1.92;;;0.70;;
69087;SDS011;56190;43.562;5.036;2022-11-20T12:25:51;1.77;;;0.70;;
69087;SDS011;56190;43.562;5.036;2022-11-20T12:28:21;2.80;;;0.77;;
69087;SDS011;56190;43.562;5.036;2022-11-20T12:49:55;0.90;;;0.60;;
69087;SDS011;56190;43.562;5.036;2022-11-20T12:52:26;1.65;;;0.90;;
69087;SDS011;56190;43.562;5.036;2022-11-20T13:05:20;2.55;;;0.77;;
69087;SDS011;56190;43.562;5.036;2022-11-20T13:07:47;1.75;;;0.80;;
69087;SDS011;56190;43.562;5.036;2022-11-20T13:10:21;2.15;;;0.90;;
69087;SDS011;56190;43.562;5.036;2022-11-20T13:12:55;3.22;;;0.80;;
69087;SDS011;56190;43.562;5.036;2022-11-20T13:18:08;1.85;;;0.70;;
69087;SDS011;56190;43.562;5.036;2022-11-20T13:20:35;2.83;;;0.70;;
69087;SDS011;56190;43.562;5.036;2022-11-20T13:23:01;2.58;;;0.80;;
69087;SDS011;56190;43.562;5.036;2022-11-20T13:25:33;2.58;;;1.13;;
69087;SDS011;56190;43.562;5.036;2022-11-20T13:28:24;1.98;;;0.80;;
69087;SDS011;56190;43.562;5.036;2022-11-20T13:30:50;2.55;;;0.75;;
69087;SDS011;56190;43.562;5.036;2022-11-20T13:33:29;0.98;;;0.60;;
69087;SDS011;56190;43.562;5.036;2022-11-20T13:35:59;1.48;;;0.80;;
69087;SDS011;56190;43.562;5.036;2022-11-20T13:38:25;2.17;;;0.65;;
69087;SDS011;56190;43.562;5.036;2022-11-20T13:43:33;1.42;;;0.52;;
69087;SDS011;56190;43.562;5.036;2022-11-20T13:46:03;1.15;;;0.63;;
69087;SDS011;56190;43.562;5.036;2022-11-20T13:48:32;2.10;;;0.65;;
69087;SDS011;56190;43.562;5.036;2022-11-20T13:51:44;3.35;;;0.70;;
69087;SDS011;56190;43.562;5.036;2022-11-20T14:01:30;2.08;;;0.68;;
69087;SDS011;56190;43.562;5.036;2022-11-20T14:03:59;0.85;;;0.60;;
69087;SDS011;56190;43.562;5.036;2022-11-20T14:06:29;0.93;;;0.52;;
69087;SDS011;56190;43.562;5.036;2022-11-20T14:08:57;1.02;;;0.60;;
69087;SDS011;56190;43.562;5.036;2022-11-20T14:11:24;1.05;;;0.68;;
69087;SDS011;56190;43.562;5.036;2022-11-20T14:16:20;1.17;;;0.43;;
69087;SDS011;56190;43.562;5.036;2022-11-20T14:18:46;1.38;;;0.88;;
69087;SDS011;56190;43.562;5.036;2022-11-20T14:21:11;1.02;;;0.55;;
69087;SDS011;56190;43.562;5.036;2022-11-20T14:23:45;2.17;;;0.57;;
69087;SDS011;56190;43.562;5.036;2022-11-20T14:26:12;1.52;;;0.70;;
69087;SDS011;56190;43.562;5.036;2022-11-20T14:28:38;1.95;;;0.57;;
69087;SDS011;56190;43.562;5.036;2022-11-20T14:31:08;1.80;;;0.68;;
69087;SDS011;56190;43.562;5.036;2022-11-20T14:33:35;1.88;;;0.70;;
69087;SDS011;56190;43.562;5.036;2022-11-20T14:36:01;2.33;;;0.73;;
69087;SDS011;56190;43.562;5.036;2022-11-20T14:38:27;2.03;;;0.70;;
69087;SDS011;56190;43.562;5.036;2022-11-20T14:40:53;2.55;;;0.80;;
69087;SDS011;56190;43.562;5.036;2022-11-20T14:43:23;2.55;;;0.70;;
69087;SDS011;56190;43.562;5.036;2022-11-20T14:45:55;3.70;;;1.05;;
69087;SDS011;56190;43.562;5.036;2022-11-20T14:48:23;1.90;;;0.98;;
69087;SDS011;56190;43.562;5.036;2022-11-20T14:50:50;4.43;;;1.02;;
69087;SDS011;56190;43.562;5.036;2022-11-20T14:53:21;2.08;;;1.08;;
69087;SDS011;56190;43.562;5.036;2022-11-20T14:55:53;2.65;;;0.90;;
69087;SDS011;56190;43.562;5.036;2022-11-20T14:58:21;1.50;;;0.88;;
69087;SDS011;56190;43.562;5.036;2022-11-20T15:00:59;2.90;;;0.80;;
69087;SDS011;56190;43.562;5.036;2022-11-20T15:03:40;2.08;;;0.70;;
69087;SDS011;56190;43.562;5.036;2022-11-20T15:06:07;1.85;;;0.70;;
69087;SDS011;56190;43.562;5.036;2022-11-20T15:08:33;1.45;;;0.90;;
69087;SDS011;56190;43.562;5.036;2022-11-20T15:10:58;3.25;;;0.90;;
69087;SDS011;56190;43.562;5.036;2022-11-20T15:13:29;1.30;;;0.82;;
69087;SDS011;56190;43.562;5.036;2022-11-20T15:15:56;2.47;;;0.80;;
69087;SDS011;56190;43.562;5.036;2022-11-20T15:20:47;1.90;;;0.80;;
69087;SDS011;56190;43.562;5.036;2022-11-20T15:23:17;3.67;;;1.23;;
69087;SDS011;56190;43.562;5.036;2022-11-20T15:25:46;1.88;;;1.02;;
69087;SDS011;56190;43.562;5.036;2022-11-20T15:28:19;2.58;;;1.13;;
69087;SDS011;56190;43.562;5.036;2022-11-20T15:30:46;2.88;;;1.25;;
69087;SDS011;56190;43.562;5.036;2022-11-20T15:33:12;4.07;;;1.02;;
69087;SDS011;56190;43.562;5.036;2022-11-20T15:35:37;2.92;;;1.58;;
69087;SDS011;56190;43.562;5.036;2022-11-20T15:38:02;2.33;;;1.08;;
69087;SDS011;56190;43.562;5.036;2022-11-20T15:40:28;2.38;;;1.13;;
69087;SDS011;56190;43.562;5.036;2022-11-20T15:42:53;2.67;;;0.90;;
69087;SDS011;56190;43.562;5.036;2022-11-20T15:45:28;2.50;;;1.02;;
69087;SDS011;56190;43.562;5.036;2022-11-20T15:47:54;2.22;;;1.10;;
69087;SDS011;56190;43.562;5.036;2022-11-20T15:50:19;1.92;;;0.85;;
69087;SDS011;56190;43.562;5.036;2022-11-20T15:52:45;1.88;;;0.93;;
69087;SDS011;56190;43.562;5.036;2022-11-20T15:55:10;1.60;;;1.13;;
69087;SDS011;56190;43.562;5.036;2022-11-20T15:57:36;2.50;;;1.10;;
69087;SDS011;56190;43.562;5.036;2022-11-20T16:00:01;2.75;;;1.27;;
69087;SDS011;56190;43.562;5.036;2022-11-20T16:02:27;1.52;;;1.10;;
69087;SDS011;56190;43.562;5.036;2022-11-20T16:04:52;3.05;;;1.45;;
69087;SDS011;56190;43.562;5.036;2022-11-20T16:07:17;1.52;;;1.00;;
69087;SDS011;56190;43.562;5.036;2022-11-20T16:09:42;2.08;;;1.20;;
69087;SDS011;56190;43.562;5.036;2022-11-20T16:12:08;2.25;;;1.10;;
69087;SDS011;56190;43.562;5.036;2022-11-20T16:14:54;1.98;;;1.25;;
69087;SDS011;56190;43.562;5.036;2022-11-20T16:17:38;3.58;;;1.40;;
69087;SDS011;56190;43.562;5.036;2022-11-20T16:20:12;5.13;;;2.20;;
69087;SDS011;56190;43.562;5.036;2022-11-20T16:22:37;3.17;;;2.30;;
69087;SDS011;56190;43.562;5.036;2022-11-20T16:25:02;4.20;;;2.25;;
69087;SDS011;56190;43.562;5.036;2022-11-20T16:27:29;4.18;;;2.30;;
69087;SDS011;56190;43.562;5.036;2022-11-20T16:29:54;2.90;;;2.10;;
69087;SDS011;56190;43.562;5.036;2022-11-20T16:32:19;2.60;;;1.58;;